»·PEaware :: SKW5218 KDEN-KPHX

SKW5218 :: KDEN-KPHX

FLIGHT INFORMATION

Flight Status: Arrived
Operator:
SkyWest Airlines
More flights by this operator :: More flights under this callsign
Pilot: Alex S. (7186)
Aircraft: CANADAIR CL-600 CRJ-700
(CRJ7)
More flights by this aircraft type
Origin: KDEN Denver Intl
United States
Destination: KPHX Phoenix Sky Harbor Intl
United States
More flights between these airports :: More routes between these airports
Route: +SOLAR3 DAAYE GUP PAYSO EAGUL6
File this flight plan on PilotEdge
Remarks: PBN / D1 DOF / 180421 REG / N770SK EET / KZAB0041 OPR / UAL PER / C RMK / TCAS SIMBRIEF
Altitude:
(Current/Filed)
30,000ft
Speed:
(Current/Filed)
443kts
Departed: 21-Apr-18 01:15 PM
Arrived: 21-Apr-18 02:40 PM
Distance/Time
Traveled:
523nm/1:25
Distance/Time
To Go:
Arrived

Flight Plot

Page will automatically refresh every two minutes.

Flight plan parsing failed; only flown route is shown


Map Options




Map Legend


Flown Route
Filed Route
Departure Airport
Arrival Airport
Navaid (VOR, NDB)
Fix

Horizontal Profiles

Position Reports

Time Latitude Longitude Heading Altitude Ground
Speed
21-Apr-18 12:37 39.858301 -104.666713 180 5438ft 0kts
21-Apr-18 12:38 39.858301 -104.666713 180 5438ft 0kts
21-Apr-18 12:39 39.858301 -104.666713 180 5438ft 0kts
21-Apr-18 12:40 39.858301 -104.666713 180 5438ft 0kts
21-Apr-18 12:41 39.858301 -104.666713 180 5438ft 0kts
21-Apr-18 12:42 39.858301 -104.666713 180 5438ft 0kts
21-Apr-18 12:43 39.858301 -104.666713 180 5438ft 0kts
21-Apr-18 12:44 39.858301 -104.666713 180 5438ft 0kts
21-Apr-18 12:45 39.858301 -104.666713 180 5438ft 0kts
21-Apr-18 12:46 39.858301 -104.666713 180 5438ft 0kts
21-Apr-18 12:47 39.858301 -104.666713 180 5438ft 0kts
21-Apr-18 12:48 39.858301 -104.666713 180 5438ft 0kts
21-Apr-18 12:49 39.858301 -104.666713 180 5438ft 0kts
21-Apr-18 12:50 39.858301 -104.666713 180 5438ft 0kts
21-Apr-18 12:51 39.858301 -104.666713 180 5438ft 0kts
21-Apr-18 12:52 39.858301 -104.666713 180 5438ft 0kts
21-Apr-18 12:53 39.858301 -104.666713 180 5438ft 0kts
21-Apr-18 12:54 39.858301 -104.666713 180 5438ft 0kts
21-Apr-18 12:55 39.858301 -104.666713 180 5438ft 0kts
21-Apr-18 12:56 39.858301 -104.666713 180 5438ft 0kts
21-Apr-18 12:57 39.858301 -104.666713 180 5438ft 0kts
21-Apr-18 12:58 39.858301 -104.666713 180 5438ft 0kts
21-Apr-18 12:59 39.858301 -104.666713 180 5438ft 0kts
21-Apr-18 13:00 39.858391 -104.666712 180 5438ft 2kts
21-Apr-18 13:01 39.858819 -104.666711 179 5438ft 0kts
21-Apr-18 13:02 39.858817 -104.666711 179 5438ft 0kts
21-Apr-18 13:03 39.858815 -104.666711 179 5438ft 0kts
21-Apr-18 13:04 39.858663 -104.665922 91 5438ft 7kts
21-Apr-18 13:05 39.857233 -104.664920 176 5438ft 3kts
21-Apr-18 13:06 39.856836 -104.663961 91 5438ft 8kts
21-Apr-18 13:07 39.854771 -104.662381 177 5438ft 16kts
21-Apr-18 13:08 39.848898 -104.662440 180 5438ft 19kts
21-Apr-18 13:09 39.843095 -104.662490 180 5438ft 23kts
21-Apr-18 13:10 39.836795 -104.662576 180 5438ft 22kts
21-Apr-18 13:11 39.830744 -104.662663 180 5438ft 21kts
21-Apr-18 13:12 39.828385 -104.661979 86 5438ft 2kts
21-Apr-18 13:13 39.828663 -104.660535 359 5438ft 12kts
21-Apr-18 13:14 39.861422 -104.660112 1 6195ft 177kts
21-Apr-18 13:15 39.869889 -104.616684 134 7715ft 195kts
21-Apr-18 13:16 39.830722 -104.558324 112 9194ft 227kts
21-Apr-18 13:17 39.825323 -104.473443 101 10709ft 272kts
21-Apr-18 13:18 39.784405 -104.381027 150 11743ft 329kts
21-Apr-18 13:19 39.692598 -104.372375 193 13548ft 345kts
21-Apr-18 13:20 39.603997 -104.425369 211 15418ft 361kts
21-Apr-18 13:21 39.515309 -104.492351 213 17325ft 377kts
21-Apr-18 13:22 39.427096 -104.571295 221 19178ft 391kts
21-Apr-18 13:23 39.358101 -104.679383 242 20940ft 396kts
21-Apr-18 13:24 39.293278 -104.798747 236 22682ft 413kts
21-Apr-18 13:25 39.224648 -104.920442 238 24340ft 426kts
21-Apr-18 13:26 39.152967 -105.045572 232 25798ft 443kts
21-Apr-18 13:27 39.044015 -105.125817 204 27116ft 466kts
21-Apr-18 13:28 38.926956 -105.200961 210 28426ft 476kts
21-Apr-18 13:29 38.807578 -105.276797 209 30061ft 478kts
21-Apr-18 13:30 38.687575 -105.353688 209 30254ft 490kts
21-Apr-18 13:31 38.564026 -105.431688 209 30248ft 489kts
21-Apr-18 13:32 38.443733 -105.507873 210 30248ft 480kts
21-Apr-18 13:33 38.324888 -105.582816 210 30248ft 474kts
21-Apr-18 13:34 38.206948 -105.656974 210 30252ft 473kts
21-Apr-18 13:35 38.086235 -105.732542 210 30253ft 492kts
21-Apr-18 13:36 37.971055 -105.822307 233 30254ft 477kts
21-Apr-18 13:37 37.881990 -105.947825 229 30237ft 484kts
21-Apr-18 13:38 37.786036 -106.066044 232 30235ft 476kts
21-Apr-18 13:39 37.694126 -106.183994 231 30257ft 465kts
21-Apr-18 13:40 37.603694 -106.297658 232 30271ft 454kts
21-Apr-18 13:41 37.515641 -106.408842 232 30303ft 443kts
21-Apr-18 13:42 37.429058 -106.517712 232 30332ft 434kts
21-Apr-18 13:43 37.342934 -106.625594 232 30331ft 451kts
21-Apr-18 13:44 37.251216 -106.739482 231 30335ft 469kts
21-Apr-18 13:45 37.157859 -106.855564 231 30287ft 475kts
21-Apr-18 13:46 37.064183 -106.971296 232 30228ft 471kts
21-Apr-18 13:47 36.971545 -107.085926 232 30206ft 466kts
21-Apr-18 13:48 36.879725 -107.199938 232 30173ft 463kts
21-Apr-18 13:49 36.787645 -107.311248 232 30169ft 459kts
21-Apr-18 13:50 36.712051 -107.403837 232 30175ft 456kts
21-Apr-18 13:51 36.621380 -107.514335 232 30178ft 454kts
21-Apr-18 13:52 36.531318 -107.623585 232 30181ft 452kts
21-Apr-18 13:53 36.441059 -107.732540 232 30165ft 451kts
21-Apr-18 13:54 36.350752 -107.841153 232 30163ft 455kts
21-Apr-18 13:55 36.259324 -107.950246 232 30171ft 456kts
21-Apr-18 13:56 36.167937 -108.059635 232 30184ft 455kts
21-Apr-18 13:57 36.076799 -108.167886 232 30192ft 454kts
21-Apr-18 13:58 35.985749 -108.275471 232 30207ft 452kts
21-Apr-18 13:59 35.894771 -108.382951 232 30217ft 451kts
21-Apr-18 14:00 35.804016 -108.489206 231 30226ft 450kts
21-Apr-18 14:01 35.713838 -108.595361 232 30235ft 448kts
21-Apr-18 14:02 35.623729 -108.701420 231 30241ft 447kts
21-Apr-18 14:03 35.533338 -108.806017 230 30243ft 447kts
21-Apr-18 14:04 35.444605 -108.911424 234 30244ft 438kts
21-Apr-18 14:05 35.362404 -109.020922 233 30242ft 434kts
21-Apr-18 14:06 35.279389 -109.127392 233 30241ft 431kts
21-Apr-18 14:07 35.196995 -109.233354 233 30240ft 430kts
21-Apr-18 14:08 35.114153 -109.340033 233 30239ft 431kts
21-Apr-18 14:09 35.031580 -109.445871 233 30246ft 430kts
21-Apr-18 14:10 34.949028 -109.551039 232 30244ft 429kts
21-Apr-18 14:11 34.866438 -109.656041 232 30245ft 427kts
21-Apr-18 14:12 34.784372 -109.760266 232 30248ft 426kts
21-Apr-18 14:13 34.703975 -109.865125 239 30254ft 418kts
21-Apr-18 14:14 34.658871 -109.990672 252 30262ft 403kts
21-Apr-18 14:15 34.611260 -110.114899 249 30270ft 412kts
21-Apr-18 14:16 34.563150 -110.244392 249 30269ft 430kts
21-Apr-18 14:17 34.506611 -110.374358 249 30264ft 436kts
21-Apr-18 14:18 34.465479 -110.508447 251 30253ft 418kts
21-Apr-18 14:19 34.415208 -110.633606 248 30244ft 407kts
21-Apr-18 14:20 34.369209 -110.756742 249 30232ft 395kts
21-Apr-18 14:21 34.303341 -110.864678 227 29045ft 416kts
21-Apr-18 14:22 34.226074 -110.960419 233 26947ft 387kts
21-Apr-18 14:23 34.153846 -111.054293 231 24415ft 372kts
21-Apr-18 14:24 34.084308 -111.143866 231 21231ft 361kts
21-Apr-18 14:25 34.017707 -111.229053 230 18915ft 340kts
21-Apr-18 14:26 33.953628 -111.311292 230 16699ft 332kts
21-Apr-18 14:27 33.891101 -111.390988 229 14440ft 322kts
21-Apr-18 14:28 33.822029 -111.455610 214 12321ft 312kts
21-Apr-18 14:29 33.752115 -111.514832 217 10317ft 303kts
21-Apr-18 14:30 33.684594 -111.572644 216 8329ft 293kts
21-Apr-18 14:31 33.625420 -111.623406 215 8025ft 237kts
21-Apr-18 14:32 33.570294 -111.669328 215 6845ft 244kts
21-Apr-18 14:33 33.514722 -111.715934 215 5335ft 240kts
21-Apr-18 14:34 33.462441 -111.761027 222 4390ft 227kts
21-Apr-18 14:35 33.426684 -111.820707 258 4018ft 215kts
21-Apr-18 14:36 33.430698 -111.890681 270 2903ft 195kts
21-Apr-18 14:37 33.428515 -111.947865 273 2045ft 150kts
21-Apr-18 14:38 33.428843 -111.994192 270 1304ft 132kts
21-Apr-18 14:39 33.428860 -112.022983 271 1142ft 27kts
21-Apr-18 14:40 33.429857 -112.025444 355 1142ft 3kts
21-Apr-18 14:41 33.432024 -112.025180 47 1142ft 5kts
21-Apr-18 14:42 33.432848 -112.023126 89 1142ft 8kts
21-Apr-18 14:43 33.432835 -112.017603 90 1142ft 24kts
21-Apr-18 14:44 33.433503 -112.012380 9 1142ft 12kts
21-Apr-18 14:45 33.434284 -112.013060 295 1142ft 3kts
21-Apr-18 14:46 33.434311 -112.013127 296 1142ft 0kts
21-Apr-18 14:47 33.434311 -112.013127 296 1142ft 0kts

Navigation Log

Ident Type
Flight plan parsing failed, navigation log unavailable